Time,TemperatureF,DewpointF,PressureIn,WindDirection,WindDirectionDegrees,WindSpeedMPH,WindSpeedGustMPH,Humidity,HourlyPrecipIn,Conditions,Clouds,dailyrainin,SoftwareType,DateUTC
2013-07-13 00:00:00,69.0,65.0,29.59,SSE,162,0.0,5.0,86,0.00,,,0.03,weatherlink.com 1.10,2013-07-13 06:00:00,
2013-07-13 00:15:00,68.7,64.0,29.59,SW,218,3.0,7.0,85,0.00,,,0.00,weatherlink.com 1.10,2013-07-13 06:15:00,
2013-07-13 00:30:00,68.5,64.0,29.60,SW,235,1.0,7.0,85,0.00,,,0.00,weatherlink.com 1.10,2013-07-13 06:30:00,
2013-07-13 00:45:00,67.7,63.0,29.59,SSW,203,0.0,6.0,85,0.00,,,0.00,weatherlink.com 1.10,2013-07-13 06:45:00,
2013-07-13 01:00:00,67.1,63.0,29.57,SSW,194,0.0,6.0,86,0.00,,,0.00,weatherlink.com 1.10,2013-07-13 07:00:00,
2013-07-13 01:15:00,66.6,62.0,29.58,NNW,335,0.0,3.0,86,0.00,,,0.00,weatherlink.com 1.10,2013-07-13 07:15:00,
2013-07-13 01:30:00,66.0,62.0,29.58,East,98,0.0,2.0,87,0.00,,,0.00,weatherlink.com 1.10,2013-07-13 07:30:00,
2013-07-13 01:45:00,65.7,62.0,29.59,WSW,250,0.0,0.0,88,0.00,,,0.00,weatherlink.com 1.10,2013-07-13 07:45:00,
2013-07-13 02:00:00,65.4,62.0,29.59,WSW,250,0.0,0.0,89,0.00,,,0.00,weatherlink.com 1.10,2013-07-13 08:00:00,
2013-07-13 02:15:00,65.0,62.0,29.59,SW,236,0.0,0.0,90,0.00,,,0.00,weatherlink.com 1.10,2013-07-13 08:15:00,
2013-07-13 02:30:00,64.4,62.0,29.59,WSW,246,0.0,1.0,90,0.00,,,0.00,weatherlink.com 1.10,2013-07-13 08:30:00,
2013-07-13 02:45:00,64.2,61.0,29.59,ESE,102,0.0,2.0,90,0.00,,,0.00,weatherlink.com 1.10,2013-07-13 08:45:00,
2013-07-13 03:00:00,64.4,62.0,29.59,SE,129,1.0,3.0,90,0.00,,,0.00,weatherlink.com 1.10,2013-07-13 09:00:00,
2013-07-13 03:15:00,64.1,61.0,29.59,SE,129,0.0,3.0,90,0.00,,,0.00,weatherlink.com 1.10,2013-07-13 09:15:00,
2013-07-13 03:30:00,63.5,61.0,29.59,NNE,26,0.0,1.0,91,0.00,,,0.00,weatherlink.com 1.10,2013-07-13 09:30:00,
2013-07-13 03:45:00,63.7,61.0,29.59,ESE,121,0.0,2.0,91,0.00,,,0.00,weatherlink.com 1.10,2013-07-13 09:45:00,
2013-07-13 04:00:00,63.5,61.0,29.59,ESE,122,0.0,3.0,91,0.00,,,0.00,weatherlink.com 1.10,2013-07-13 10:00:00,
2013-07-13 04:15:00,63.0,60.0,29.60,ESE,103,1.0,1.0,91,0.00,,,0.00,weatherlink.com 1.10,2013-07-13 10:15:00,
2013-07-13 04:30:00,62.9,61.0,29.60,SE,129,2.0,2.0,92,0.00,,,0.00,weatherlink.com 1.10,2013-07-13 10:30:00,
2013-07-13 04:45:00,62.9,60.0,29.60,WNW,290,1.0,2.0,91,0.00,,,0.00,weatherlink.com 1.10,2013-07-13 10:45:00,
2013-07-13 05:00:00,62.9,60.0,29.61,ESE,114,0.0,2.0,91,0.00,,,0.00,weatherlink.com 1.10,2013-07-13 11:00:00,
2013-07-13 05:15:00,62.4,60.0,29.61,ESE,110,0.0,0.0,91,0.00,,,0.00,weatherlink.com 1.10,2013-07-13 11:15:00,
2013-07-13 05:30:00,61.9,59.0,29.62,NW,320,0.0,1.0,91,0.00,,,0.00,weatherlink.com 1.10,2013-07-13 11:30:00,
2013-07-13 05:45:00,62.1,60.0,29.62,East,96,0.0,3.0,92,0.00,,,0.00,weatherlink.com 1.10,2013-07-13 11:45:00,
2013-07-13 06:00:00,62.6,60.0,29.63,SSE,152,0.0,1.0,91,0.00,,,0.00,weatherlink.com 1.10,2013-07-13 12:00:00,
2013-07-13 06:15:00,64.0,60.0,29.63,ESE,115,0.0,1.0,88,0.00,,,0.00,weatherlink.com 1.10,2013-07-13 12:15:00,
2013-07-13 06:30:00,65.6,61.0,29.63,SSW,194,0.0,1.0,85,0.00,,,0.00,weatherlink.com 1.10,2013-07-13 12:30:00,
2013-07-13 06:46:00,67.9,62.0,29.63,NNW,337,0.0,2.0,81,0.00,,,0.00,weatherlink.com 1.10,2013-07-13 12:46:00,
2013-07-13 07:01:00,68.9,63.0,29.63,NW,312,0.0,1.0,80,0.00,,,0.00,weatherlink.com 1.10,2013-07-13 13:01:00,
2013-07-13 07:16:00,69.5,63.0,29.64,ESE,121,0.0,1.0,79,0.00,,,0.00,weatherlink.com 1.10,2013-07-13 13:16:00,
2013-07-13 07:31:00,71.2,63.0,29.64,SSE,159,0.0,4.0,76,0.00,,,0.00,weatherlink.com 1.10,2013-07-13 13:31:00,
2013-07-13 07:46:00,73.4,64.0,29.64,SE,136,0.0,2.0,72,0.00,,,0.00,weatherlink.com 1.10,2013-07-13 13:46:00,
2013-07-13 08:01:00,74.6,64.0,29.64,SSW,193,1.0,3.0,69,0.00,,,0.00,weatherlink.com 1.10,2013-07-13 14:01:00,
2013-07-13 08:16:00,75.7,64.0,29.64,North,8,1.0,3.0,66,0.00,,,0.00,weatherlink.com 1.10,2013-07-13 14:16:00,
2013-07-13 08:31:00,77.1,64.0,29.64,WSW,245,0.0,3.0,64,0.00,,,0.00,weatherlink.com 1.10,2013-07-13 14:31:00,
2013-07-13 08:46:00,78.5,64.0,29.64,SSE,156,0.0,2.0,61,0.00,,,0.00,weatherlink.com 1.10,2013-07-13 14:46:00,
2013-07-13 09:01:00,81.4,64.0,29.64,NW,311,0.0,2.0,55,0.00,,,0.00,weatherlink.com 1.10,2013-07-13 15:01:00,
2013-07-13 09:16:00,80.9,63.0,29.64,SE,135,0.0,2.0,55,0.00,,,0.00,weatherlink.com 1.10,2013-07-13 15:16:00,
2013-07-13 09:31:00,85.2,62.0,29.64,SW,217,0.0,4.0,46,0.00,,,0.00,weatherlink.com 1.10,2013-07-13 15:31:00,
2013-07-13 09:46:00,82.6,61.0,29.64,SSW,205,0.0,3.0,48,0.00,,,0.00,weatherlink.com 1.10,2013-07-13 15:46:00,
2013-07-13 10:01:00,80.7,61.0,29.64,SW,233,0.0,1.0,52,0.00,,,0.00,weatherlink.com 1.10,2013-07-13 16:01:00,
2013-07-13 10:16:00,83.0,62.0,29.64,SW,228,0.0,1.0,49,0.00,,,0.00,weatherlink.com 1.10,2013-07-13 16:16:00,
2013-07-13 10:31:00,85.8,63.0,29.64,WSW,250,2.0,4.0,46,0.00,,,0.00,weatherlink.com 1.10,2013-07-13 16:31:00,
2013-07-13 10:46:00,88.3,62.0,29.64,WSW,252,0.0,4.0,42,0.00,,,0.00,weatherlink.com 1.10,2013-07-13 16:46:00,
2013-07-13 11:01:00,88.9,62.0,29.63,SW,215,2.0,5.0,40,0.00,,,0.00,weatherlink.com 1.10,2013-07-13 17:01:00,
2013-07-13 11:16:00,90.5,59.0,29.63,WNW,283,0.0,4.0,35,0.00,,,0.00,weatherlink.com 1.10,2013-07-13 17:16:00,
2013-07-13 11:31:00,92.3,61.0,29.63,West,269,3.0,4.0,35,0.00,,,0.00,weatherlink.com 1.10,2013-07-13 17:31:00,
2013-07-13 11:46:00,91.3,60.0,29.62,South,173,0.0,5.0,35,0.00,,,0.00,weatherlink.com 1.10,2013-07-13 17:46:00,
2013-07-13 12:01:00,91.7,58.0,29.62,WSW,240,0.0,1.0,32,0.00,,,0.00,weatherlink.com 1.10,2013-07-13 18:01:00,
2013-07-13 12:17:00,93.6,54.0,29.62,SW,231,0.0,1.0,26,0.00,,,0.00,weatherlink.com 1.10,2013-07-13 18:17:00,
2013-07-13 12:32:00,92.2,55.0,29.62,West,259,0.0,1.0,28,0.00,,,0.00,weatherlink.com 1.10,2013-07-13 18:32:00,
2013-07-13 12:47:00,92.8,54.0,29.62,WNW,302,0.0,8.0,27,0.00,,,0.00,weatherlink.com 1.10,2013-07-13 18:47:00,
2013-07-13 13:02:00,93.5,54.0,29.62,West,263,0.0,1.0,26,0.00,,,0.00,weatherlink.com 1.10,2013-07-13 19:02:00,
2013-07-13 13:17:00,94.3,52.0,29.61,West,277,3.0,6.0,24,0.00,,,0.00,weatherlink.com 1.10,2013-07-13 19:17:00,
2013-07-13 13:32:00,95.3,53.0,29.61,West,281,0.0,1.0,24,0.00,,,0.00,weatherlink.com 1.10,2013-07-13 19:32:00,
2013-07-13 13:47:00,95.1,53.0,29.61,WNW,291,0.0,8.0,24,0.00,,,0.00,weatherlink.com 1.10,2013-07-13 19:47:00,
2013-07-13 14:02:00,95.7,54.0,29.61,SSE,166,1.0,2.0,24,0.00,,,0.00,weatherlink.com 1.10,2013-07-13 20:02:00,
2013-07-13 14:17:00,95.3,51.0,29.60,West,259,6.0,8.0,22,0.00,,,0.00,weatherlink.com 1.10,2013-07-13 20:17:00,
2013-07-13 14:32:00,94.5,50.0,29.59,NW,314,2.0,9.0,22,0.00,,,0.00,weatherlink.com 1.10,2013-07-13 20:32:00,
2013-07-13 14:47:00,94.9,51.0,29.58,WSW,250,6.0,10.0,22,0.00,,,0.00,weatherlink.com 1.10,2013-07-13 20:47:00,
2013-07-13 15:02:00,95.7,50.0,29.59,WSW,240,4.0,7.0,21,0.00,,,0.00,weatherlink.com 1.10,2013-07-13 21:02:00,
2013-07-13 15:17:00,94.4,50.0,29.59,WSW,257,0.0,1.0,22,0.00,,,0.00,weatherlink.com 1.10,2013-07-13 21:17:00,
2013-07-13 15:32:00,94.2,50.0,29.59,WNW,292,3.0,9.0,22,0.00,,,0.00,weatherlink.com 1.10,2013-07-13 21:32:00,
2013-07-13 15:47:00,96.1,50.0,29.59,NW,314,4.0,7.0,21,0.00,,,0.00,weatherlink.com 1.10,2013-07-13 21:47:00,
2013-07-13 16:02:00,95.3,51.0,29.59,West,275,0.0,4.0,22,0.00,,,0.00,weatherlink.com 1.10,2013-07-13 22:02:00,
2013-07-13 16:17:00,96.2,50.0,29.59,North,356,0.0,2.0,21,0.00,,,0.00,weatherlink.com 1.10,2013-07-13 22:17:00,
2013-07-13 16:32:00,96.1,50.0,29.59,SW,232,0.0,4.0,21,0.00,,,0.00,weatherlink.com 1.10,2013-07-13 22:32:00,
2013-07-13 16:47:00,94.5,50.0,29.59,SW,236,0.0,0.0,22,0.00,,,0.00,weatherlink.com 1.10,2013-07-13 22:47:00,
2013-07-13 17:02:00,92.7,50.0,29.59,West,262,0.0,5.0,23,0.00,,,0.00,weatherlink.com 1.10,2013-07-13 23:02:00,
2013-07-13 17:17:00,90.1,55.0,29.60,WSW,239,7.0,8.0,30,0.00,,,0.00,weatherlink.com 1.10,2013-07-13 23:17:00,
2013-07-13 17:32:00,86.6,56.0,29.60,West,274,0.0,8.0,35,0.00,,,0.00,weatherlink.com 1.10,2013-07-13 23:32:00,
2013-07-13 17:47:00,86.6,56.0,29.60,SSW,204,0.0,5.0,35,0.00,,,0.00,weatherlink.com 1.10,2013-07-13 23:47:00,
2013-07-13 18:02:00,86.2,57.0,29.60,South,191,5.0,12.0,37,0.00,,,0.00,weatherlink.com 1.10,2013-07-14 00:02:00,
2013-07-13 18:17:00,87.3,53.0,29.60,SW,233,0.0,4.0,31,0.00,,,0.00,weatherlink.com 1.10,2013-07-14 00:17:00,
2013-07-13 18:32:00,86.1,55.0,29.61,SSE,163,0.0,5.0,35,0.00,,,0.00,weatherlink.com 1.10,2013-07-14 00:32:00,
2013-07-13 18:47:00,84.7,58.0,29.61,SSW,205,5.0,9.0,41,0.00,,,0.00,weatherlink.com 1.10,2013-07-14 00:47:00,
2013-07-13 19:02:00,82.4,58.0,29.61,West,263,3.0,9.0,44,0.00,,,0.00,weatherlink.com 1.10,2013-07-14 01:02:00,
2013-07-13 19:17:00,80.8,58.0,29.60,SSE,168,3.0,5.0,46,0.00,,,0.00,weatherlink.com 1.10,2013-07-14 01:17:00,
2013-07-13 19:32:00,79.7,59.0,29.61,SW,217,3.0,5.0,49,0.00,,,0.00,weatherlink.com 1.10,2013-07-14 01:32:00,
2013-07-13 19:47:00,78.4,61.0,29.64,SW,225,3.0,10.0,55,0.00,,,0.00,weatherlink.com 1.10,2013-07-14 01:47:00,
2013-07-13 20:02:00,77.5,61.0,29.65,West,276,6.0,10.0,57,0.00,,,0.00,weatherlink.com 1.10,2013-07-14 02:02:00,
2013-07-13 20:17:00,77.3,60.0,29.65,SW,226,4.0,11.0,56,0.00,,,0.00,weatherlink.com 1.10,2013-07-14 02:17:00,
2013-07-13 20:32:00,77.0,60.0,29.64,West,274,2.0,15.0,56,0.00,,,0.00,weatherlink.com 1.10,2013-07-14 02:32:00,
2013-07-13 20:47:00,76.5,60.0,29.64,West,278,0.0,9.0,57,0.00,,,0.00,weatherlink.com 1.10,2013-07-14 02:47:00,
2013-07-13 21:02:00,76.2,60.0,29.64,SSW,194,4.0,8.0,58,0.00,,,0.00,weatherlink.com 1.10,2013-07-14 03:02:00,
2013-07-13 21:17:00,74.5,61.0,29.64,WSW,238,0.0,1.0,63,0.00,,,0.00,weatherlink.com 1.10,2013-07-14 03:17:00,
2013-07-13 21:32:00,72.5,62.0,29.66,SW,229,2.0,9.0,69,0.00,,,0.00,weatherlink.com 1.10,2013-07-14 03:32:00,
2013-07-13 21:47:00,71.8,62.0,29.66,SW,229,5.0,6.0,70,0.00,,,0.00,weatherlink.com 1.10,2013-07-14 03:47:00,
2013-07-13 22:02:00,70.8,62.0,29.67,WSW,244,7.0,8.0,73,0.00,,,0.00,weatherlink.com 1.10,2013-07-14 04:02:00,
2013-07-13 22:17:00,71.2,62.0,29.67,West,271,5.0,12.0,72,0.00,,,0.00,weatherlink.com 1.10,2013-07-14 04:17:00,
2013-07-13 22:32:00,71.6,62.0,29.68,SW,225,4.0,10.0,72,0.00,,,0.00,weatherlink.com 1.10,2013-07-14 04:32:00,
2013-07-13 22:47:00,71.3,61.0,29.68,WSW,252,4.0,9.0,71,0.00,,,0.00,weatherlink.com 1.10,2013-07-14 04:47:00,
2013-07-13 23:02:00,71.1,61.0,29.68,SSW,210,4.0,8.0,70,0.00,,,0.00,weatherlink.com 1.10,2013-07-14 05:02:00,
2013-07-13 23:17:00,70.6,61.0,29.67,West,260,3.0,5.0,71,0.00,,,0.00,weatherlink.com 1.10,2013-07-14 05:17:00,
2013-07-13 23:32:00,71.0,61.0,29.66,SSW,207,1.0,8.0,70,0.00,,,0.00,weatherlink.com 1.10,2013-07-14 05:32:00,
2013-07-13 23:47:00,71.2,60.0,29.66,West,281,0.0,1.0,68,0.00,,,0.00,weatherlink.com 1.10,2013-07-14 05:47:00,